createdAt,value
2022-09-15T00:00:52.799Z,1.40
2022-09-15T00:03:21.469Z,1.50
2022-09-15T00:05:51.221Z,1.30
2022-09-15T00:08:19.551Z,1.83
2022-09-15T00:10:52.413Z,2.40
2022-09-15T00:13:21.106Z,2.15
2022-09-15T00:15:49.610Z,2.45
2022-09-15T00:18:17.934Z,2.50
2022-09-15T00:20:46.927Z,2.15
2022-09-15T00:23:17.090Z,2.53
2022-09-15T00:25:45.935Z,2.75
2022-09-15T00:28:16.961Z,2.75
2022-09-15T00:30:45.785Z,3.40
2022-09-15T00:33:14.719Z,2.65
2022-09-15T00:35:44.677Z,2.75
2022-09-15T00:38:14.101Z,2.83
2022-09-15T00:40:47.630Z,2.72
2022-09-15T00:43:16.494Z,2.95
2022-09-15T00:45:44.949Z,3.05
2022-09-15T00:48:15.081Z,2.97
2022-09-15T00:50:44.741Z,2.70
2022-09-15T00:53:13.348Z,2.63
2022-09-15T00:55:43.553Z,2.70
2022-09-15T00:58:14.283Z,2.25
2022-09-15T01:00:45.750Z,2.40
2022-09-15T01:03:14.293Z,2.20
2022-09-15T01:05:50.418Z,2.08
2022-09-15T01:08:20.945Z,2.05
2022-09-15T01:10:49.260Z,2.50
2022-09-15T01:13:18.877Z,1.90
2022-09-15T01:15:52.523Z,1.70
2022-09-15T01:18:23.853Z,2.17
2022-09-15T01:21:00.261Z,1.83
2022-09-15T01:23:39.553Z,2.08
2022-09-15T01:26:28.694Z,1.77
2022-09-15T01:29:13.356Z,1.60
2022-09-15T01:32:00.075Z,1.70
2022-09-15T01:34:31.966Z,1.65
2022-09-15T01:37:04.310Z,1.52
2022-09-15T01:39:35.000Z,1.40
2022-09-15T01:42:05.526Z,1.58
2022-09-15T01:44:35.882Z,1.30
2022-09-15T01:47:07.946Z,1.38
2022-09-15T01:49:38.247Z,1.10
2022-09-15T01:52:07.023Z,1.60
2022-09-15T01:54:37.715Z,1.30
2022-09-15T01:57:06.099Z,1.00
2022-09-15T01:59:35.574Z,1.25
2022-09-15T02:02:06.996Z,1.25
2022-09-15T02:04:38.258Z,1.02
2022-09-15T02:07:12.265Z,1.05
2022-09-15T02:09:42.288Z,1.00
2022-09-15T02:12:14.468Z,1.00
2022-09-15T02:14:49.134Z,1.10
2022-09-15T02:17:20.286Z,0.90
2022-09-15T02:19:50.442Z,1.05
2022-09-15T02:22:23.349Z,1.00
2022-09-15T02:24:55.609Z,1.00
2022-09-15T02:27:25.695Z,1.10
2022-09-15T02:29:55.540Z,0.95
2022-09-15T02:32:25.955Z,1.00
2022-09-15T02:34:55.725Z,0.80
2022-09-15T02:37:26.374Z,1.00
2022-09-15T02:39:58.080Z,1.17
2022-09-15T02:42:26.790Z,0.80
2022-09-15T02:44:56.147Z,1.65
2022-09-15T02:47:26.091Z,0.90
2022-09-15T02:49:54.340Z,0.90
2022-09-15T02:52:22.801Z,0.90
2022-09-15T02:54:51.084Z,1.27
2022-09-15T02:57:19.832Z,1.23
2022-09-15T03:00:05.715Z,1.23
2022-09-15T03:02:35.428Z,1.00
2022-09-15T03:05:03.684Z,1.15
2022-09-15T03:07:31.981Z,1.02
2022-09-15T03:10:00.347Z,1.02
2022-09-15T03:12:28.680Z,0.90
2022-09-15T03:14:57.005Z,1.05
2022-09-15T03:17:25.344Z,0.90
2022-09-15T03:19:54.935Z,1.30
2022-09-15T03:22:23.250Z,1.00
2022-09-15T03:24:51.832Z,1.23
2022-09-15T03:27:20.163Z,1.00
2022-09-15T03:29:48.460Z,0.80
2022-09-15T03:32:16.717Z,0.77
2022-09-15T03:34:45.100Z,0.75
2022-09-15T03:37:16.190Z,0.77
2022-09-15T03:39:44.520Z,1.30
2022-09-15T03:42:12.864Z,1.02
2022-09-15T03:44:41.313Z,0.85
2022-09-15T03:47:09.577Z,0.77
2022-09-15T03:49:38.069Z,0.98
2022-09-15T03:52:06.616Z,1.02
2022-09-15T03:54:36.477Z,0.77
2022-09-15T03:57:04.821Z,0.98
2022-09-15T03:59:33.063Z,0.70
2022-09-15T04:02:01.458Z,0.95
2022-09-15T04:04:29.929Z,0.80
2022-09-15T04:06:58.294Z,0.80
2022-09-15T04:09:26.765Z,0.75
2022-09-15T04:11:56.387Z,0.73
2022-09-15T04:14:24.739Z,1.10
2022-09-15T04:16:52.981Z,0.98
2022-09-15T04:19:21.181Z,1.10
2022-09-15T04:21:49.524Z,1.20
2022-09-15T04:24:17.869Z,1.27
2022-09-15T04:26:46.073Z,0.95
2022-09-15T04:29:16.466Z,0.85
2022-09-15T04:31:45.052Z,0.80
2022-09-15T04:34:13.322Z,0.93
2022-09-15T04:36:41.643Z,0.80
2022-09-15T04:39:10.005Z,0.88
2022-09-15T04:41:38.292Z,1.05
2022-09-15T04:44:06.578Z,0.80
2022-09-15T04:46:36.277Z,0.68
2022-09-15T04:49:07.313Z,1.20
2022-09-15T04:51:37.431Z,0.80
2022-09-15T04:54:06.331Z,0.70
2022-09-15T04:56:34.620Z,0.68
2022-09-15T04:59:04.285Z,1.00
2022-09-15T05:01:36.219Z,0.85
2022-09-15T05:04:06.353Z,0.70
2022-09-15T05:06:35.156Z,1.10
2022-09-15T05:09:07.646Z,1.13
2022-09-15T05:11:38.259Z,0.70
2022-09-15T05:14:06.567Z,0.75
2022-09-15T05:16:34.860Z,0.90
2022-09-15T05:19:04.867Z,1.20
2022-09-15T05:21:35.067Z,0.88
2022-09-15T05:24:03.714Z,0.73
2022-09-15T05:26:31.998Z,0.80
2022-09-15T05:29:00.273Z,0.95
2022-09-15T05:31:29.234Z,1.00
2022-09-15T05:33:57.719Z,1.00
2022-09-15T05:36:26.241Z,1.00
2022-09-15T05:38:57.370Z,1.00
2022-09-15T05:41:26.204Z,1.05
2022-09-15T05:43:57.336Z,1.20
2022-09-15T05:46:28.571Z,0.80
2022-09-15T05:48:58.238Z,1.27
2022-09-15T05:51:27.096Z,1.10
2022-09-15T05:53:57.392Z,1.13
2022-09-15T05:56:25.690Z,1.02
2022-09-15T05:58:55.734Z,1.13
2022-09-15T06:01:24.723Z,1.50
2022-09-15T06:03:53.313Z,1.30
2022-09-15T06:06:22.128Z,1.30
2022-09-15T06:08:56.876Z,1.08
2022-09-15T06:11:28.135Z,1.33
2022-09-15T06:13:56.680Z,0.98
2022-09-15T06:16:26.427Z,1.10
2022-09-15T06:18:55.581Z,1.40
2022-09-15T06:21:25.040Z,1.38
2022-09-15T06:23:54.953Z,1.15
2022-09-15T06:26:23.555Z,0.80
2022-09-15T06:28:53.751Z,1.00
2022-09-15T06:31:22.211Z,0.88
2022-09-15T06:33:52.072Z,0.88
2022-09-15T06:36:21.170Z,1.00
2022-09-15T06:38:49.887Z,1.17
2022-09-15T06:41:18.515Z,0.98
2022-09-15T06:43:49.100Z,1.02
2022-09-15T06:46:19.995Z,0.93
2022-09-15T06:48:48.878Z,1.00
2022-09-15T06:51:17.930Z,1.27
2022-09-15T06:53:46.832Z,1.65
2022-09-15T06:56:15.672Z,1.75
2022-09-15T06:58:44.918Z,1.20
2022-09-15T07:01:14.094Z,0.90
2022-09-15T07:03:44.979Z,1.00
2022-09-15T07:06:13.627Z,1.15
2022-09-15T07:08:42.612Z,0.88
2022-09-15T07:11:11.723Z,0.80
2022-09-15T07:13:40.027Z,1.23
2022-09-15T07:16:09.276Z,1.33
2022-09-15T07:18:42.812Z,1.13
2022-09-15T07:21:14.365Z,0.93
2022-09-15T07:23:42.981Z,1.35
2022-09-15T07:26:11.734Z,1.15
2022-09-15T07:28:40.550Z,1.20
2022-09-15T07:31:09.998Z,1.65
2022-09-15T07:33:38.250Z,1.35
2022-09-15T07:36:07.258Z,1.20
2022-09-15T07:38:37.123Z,1.20
2022-09-15T07:41:05.906Z,1.10
2022-09-15T07:43:34.506Z,1.08
2022-09-15T07:46:03.365Z,1.00
2022-09-15T07:48:31.942Z,1.08
2022-09-15T07:51:00.796Z,1.38
2022-09-15T07:53:30.041Z,0.90
2022-09-15T07:55:59.665Z,0.70
2022-09-15T07:58:27.970Z,0.80
2022-09-15T08:00:56.243Z,0.80
2022-09-15T08:03:24.689Z,0.80
2022-09-15T08:05:53.091Z,0.82
2022-09-15T08:08:21.495Z,0.95
2022-09-15T08:10:49.799Z,0.82
2022-09-15T08:13:19.633Z,1.10
2022-09-15T08:15:48.529Z,1.00
2022-09-15T08:18:16.992Z,1.25
2022-09-15T08:20:45.864Z,1.15
2022-09-15T08:23:14.277Z,1.10
2022-09-15T08:25:42.515Z,1.10
2022-09-15T08:28:10.821Z,0.82
2022-09-15T08:30:40.504Z,1.20
2022-09-15T08:33:08.855Z,1.35
2022-09-15T08:35:37.393Z,0.90
2022-09-15T08:38:05.673Z,0.93
2022-09-15T08:40:36.543Z,0.75
2022-09-15T08:43:08.101Z,1.25
2022-09-15T08:45:41.967Z,1.05
2022-09-15T08:48:15.671Z,1.50
2022-09-15T08:50:45.347Z,0.85
2022-09-15T08:53:15.638Z,0.80
2022-09-15T08:55:46.001Z,0.73
2022-09-15T08:58:15.744Z,0.80
2022-09-15T09:00:44.355Z,0.95
2022-09-15T09:03:20.798Z,0.80
2022-09-15T09:05:55.878Z,0.90
2022-09-15T09:08:32.796Z,0.82
2022-09-15T09:11:03.760Z,0.80
2022-09-15T09:13:36.374Z,0.90
2022-09-15T09:16:11.175Z,0.75
2022-09-15T09:18:48.856Z,0.93
2022-09-15T09:21:20.971Z,0.68
2022-09-15T09:23:51.398Z,0.70
2022-09-15T09:26:19.989Z,1.15
2022-09-15T09:28:51.655Z,0.68
2022-09-15T09:31:23.097Z,0.90
2022-09-15T09:33:54.339Z,0.80
2022-09-15T09:36:22.912Z,0.80
2022-09-15T09:38:52.234Z,0.80
2022-09-15T09:41:27.446Z,0.90
2022-09-15T09:43:56.706Z,0.77
2022-09-15T09:46:25.058Z,0.82
2022-09-15T09:48:57.370Z,0.80
2022-09-15T09:51:35.982Z,0.73
2022-09-15T09:54:08.751Z,0.82
2022-09-15T09:56:37.097Z,0.77
2022-09-15T09:59:05.459Z,0.73
2022-09-15T10:01:33.928Z,0.77
2022-09-15T10:04:21.094Z,1.10
2022-09-15T10:06:50.115Z,1.30
2022-09-15T10:09:19.833Z,0.60
2022-09-15T10:11:49.337Z,1.30
2022-09-15T10:14:22.967Z,0.70
2022-09-15T10:16:58.699Z,0.70
2022-09-15T10:19:32.968Z,0.90
2022-09-15T10:22:02.348Z,0.82
2022-09-15T10:24:37.838Z,1.10
2022-09-15T10:27:23.123Z,0.70
2022-09-15T10:29:51.451Z,0.70
2022-09-15T10:32:25.793Z,0.70
2022-09-15T10:35:02.482Z,0.88
2022-09-15T10:37:33.217Z,1.58
2022-09-15T10:40:02.934Z,0.80
2022-09-15T10:42:40.838Z,2.20
2022-09-15T10:45:14.277Z,0.70
2022-09-15T10:47:46.724Z,0.90
2022-09-15T10:50:18.867Z,0.68
2022-09-15T10:52:53.823Z,0.73
2022-09-15T10:55:51.128Z,0.93
2022-09-15T10:58:23.448Z,0.75
2022-09-15T11:00:56.161Z,0.80
2022-09-15T11:03:39.882Z,0.60
2022-09-15T11:06:14.337Z,1.23
2022-09-15T11:08:47.946Z,0.80
2022-09-15T11:11:19.448Z,0.85
2022-09-15T11:13:53.960Z,0.90
2022-09-15T11:16:29.675Z,1.10
2022-09-15T11:19:02.993Z,1.35
2022-09-15T11:21:36.497Z,0.80
2022-09-15T11:24:16.762Z,1.08
2022-09-15T11:26:47.615Z,1.00
2022-09-15T11:29:20.476Z,1.40
2022-09-15T11:31:50.678Z,1.02
2022-09-15T11:34:21.676Z,0.95
2022-09-15T11:36:54.894Z,1.10
2022-09-15T11:39:25.948Z,1.00
2022-09-15T11:41:56.782Z,0.77
2022-09-15T11:44:26.881Z,0.88
2022-09-15T11:47:16.299Z,0.80
2022-09-15T11:49:47.457Z,0.95
2022-09-15T11:52:30.619Z,1.38
2022-09-15T11:55:03.100Z,0.88
2022-09-15T11:57:33.918Z,1.27
2022-09-15T12:00:04.473Z,0.98
2022-09-15T12:02:36.925Z,0.90
2022-09-15T12:05:08.692Z,1.10
2022-09-15T12:07:40.322Z,0.98
2022-09-15T12:10:16.213Z,1.40
2022-09-15T12:12:46.235Z,0.95
2022-09-15T12:15:19.014Z,1.10
2022-09-15T12:17:49.849Z,0.75
2022-09-15T12:20:23.644Z,1.02
2022-09-15T12:22:55.144Z,1.58
2022-09-15T12:25:28.627Z,1.00
2022-09-15T12:28:15.554Z,1.10
2022-09-15T12:30:53.313Z,1.20
2022-09-15T12:33:55.571Z,1.05
2022-09-15T12:36:32.343Z,1.08
2022-09-15T12:39:01.689Z,1.10
2022-09-15T12:41:34.933Z,1.08
2022-09-15T12:44:06.939Z,1.17
2022-09-15T12:46:38.190Z,0.90
2022-09-15T12:49:06.836Z,1.10
2022-09-15T12:51:35.198Z,1.00
2022-09-15T12:54:08.770Z,1.05
2022-09-15T12:56:39.053Z,1.08
2022-09-15T12:59:08.089Z,1.15
2022-09-15T13:01:51.427Z,0.80
2022-09-15T13:04:28.496Z,0.88
2022-09-15T13:07:20.942Z,1.25
2022-09-15T13:09:57.966Z,0.93
2022-09-15T13:12:28.704Z,0.90
2022-09-15T13:14:58.393Z,1.20
2022-09-15T13:17:27.520Z,0.57
2022-09-15T13:19:59.429Z,0.90
2022-09-15T13:22:30.190Z,1.02
2022-09-15T13:25:02.169Z,1.08
2022-09-15T13:27:36.344Z,1.08
2022-09-15T13:30:09.632Z,0.90
2022-09-15T13:32:43.583Z,0.90
2022-09-15T13:35:29.970Z,0.63
2022-09-15T13:38:22.709Z,0.55
2022-09-15T13:41:11.010Z,0.82
2022-09-15T13:43:52.533Z,0.70
2022-09-15T13:46:29.956Z,0.70
2022-09-15T13:49:04.360Z,0.68
2022-09-15T13:51:33.306Z,0.68
2022-09-15T13:54:02.938Z,0.75
2022-09-15T13:56:33.635Z,0.80
2022-09-15T13:59:11.823Z,0.90
2022-09-15T14:01:43.252Z,0.88
2022-09-15T14:04:13.946Z,0.70
2022-09-15T14:06:43.157Z,0.70
2022-09-15T14:09:15.565Z,0.80
2022-09-15T14:11:44.418Z,0.65
2022-09-15T14:14:23.448Z,0.65
2022-09-15T14:16:52.749Z,0.80
2022-09-15T14:19:31.164Z,0.63
2022-09-15T14:22:02.759Z,0.80
2022-09-15T14:24:32.232Z,1.30
2022-09-15T14:27:03.425Z,1.10
2022-09-15T14:29:33.142Z,1.02
2022-09-15T14:32:04.006Z,1.10
2022-09-15T14:34:33.489Z,1.35
2022-09-15T14:37:04.278Z,1.00
2022-09-15T14:39:33.521Z,0.90
2022-09-15T14:42:10.994Z,0.82
2022-09-15T14:47:33.646Z,0.88
2022-09-15T14:50:09.903Z,1.40
2022-09-15T14:52:41.276Z,1.02
2022-09-15T14:55:15.523Z,0.80
2022-09-15T14:57:49.982Z,1.00
2022-09-15T15:00:20.874Z,1.20
2022-09-15T15:02:53.652Z,1.00
2022-09-15T15:05:24.720Z,1.50
2022-09-15T15:07:55.323Z,0.77
2022-09-15T15:10:26.098Z,0.85
2022-09-15T15:12:55.337Z,1.00
2022-09-15T15:15:25.068Z,1.20
2022-09-15T15:17:54.873Z,1.30
2022-09-15T15:20:25.053Z,0.95
2022-09-15T15:23:11.884Z,0.85
2022-09-15T15:25:40.109Z,0.90
2022-09-15T15:28:08.680Z,1.10
2022-09-15T15:30:45.503Z,1.08
2022-09-15T15:33:22.038Z,1.90
2022-09-15T15:36:02.415Z,1.13
2022-09-15T15:38:31.501Z,1.10
2022-09-15T15:41:03.569Z,1.10
2022-09-15T15:43:32.291Z,0.95
2022-09-15T15:46:03.187Z,0.98
2022-09-15T15:48:36.893Z,0.93
2022-09-15T15:51:06.561Z,1.15
2022-09-15T15:53:34.917Z,1.33
2022-09-15T15:56:03.654Z,1.30
2022-09-15T15:58:31.903Z,1.27
2022-09-15T16:01:01.590Z,0.98
2022-09-15T16:03:30.049Z,1.10
2022-09-15T16:05:59.593Z,1.17
2022-09-15T16:08:30.005Z,1.30
2022-09-15T16:10:58.615Z,1.40
2022-09-15T16:13:26.991Z,0.90
2022-09-15T16:15:56.893Z,1.45
2022-09-15T16:18:26.560Z,2.10
2022-09-15T16:20:55.013Z,1.00
2022-09-15T16:23:24.208Z,1.27
2022-09-15T16:25:54.563Z,1.10
2022-09-15T16:28:22.907Z,0.80
2022-09-15T16:30:51.332Z,1.10
2022-09-15T16:33:20.247Z,0.80
2022-09-15T16:35:52.802Z,1.08
2022-09-15T16:38:21.431Z,0.73
2022-09-15T16:40:51.204Z,0.80
2022-09-15T16:43:21.597Z,0.63
2022-09-15T16:45:50.517Z,0.80
2022-09-15T16:48:18.692Z,1.02
2022-09-15T16:51:09.559Z,1.00
2022-09-15T16:53:37.521Z,1.45
2022-09-15T16:56:05.916Z,0.70
2022-09-15T16:58:34.356Z,0.60
2022-09-15T17:01:03.461Z,1.20
2022-09-15T17:03:32.427Z,0.85
2022-09-15T17:06:01.744Z,0.80
2022-09-15T17:08:31.251Z,0.95
2022-09-15T17:11:02.079Z,0.70
2022-09-15T17:13:31.529Z,0.70
2022-09-15T17:16:00.140Z,0.63
2022-09-15T17:18:28.830Z,1.00
2022-09-15T17:20:57.589Z,0.50
2022-09-15T17:23:27.639Z,0.85
2022-09-15T17:25:58.369Z,1.10
2022-09-15T17:28:29.077Z,0.80
2022-09-15T17:30:58.788Z,0.90
2022-09-15T17:33:27.472Z,0.77
2022-09-15T17:35:55.759Z,0.70
2022-09-15T17:38:25.140Z,0.88
2022-09-15T17:40:55.209Z,0.93
2022-09-15T17:43:24.521Z,1.13
2022-09-15T17:45:54.551Z,1.10
2022-09-15T17:48:23.205Z,0.80
2022-09-15T17:50:52.500Z,1.20
2022-09-15T17:53:22.547Z,1.27
2022-09-15T17:55:51.125Z,0.73
2022-09-15T17:58:19.920Z,0.75
2022-09-15T18:00:48.765Z,1.13
2022-09-15T18:03:24.783Z,0.88
2022-09-15T18:05:55.772Z,1.50
2022-09-15T18:08:25.447Z,1.00
2022-09-15T18:10:55.415Z,1.02
2022-09-15T18:13:26.583Z,1.50
2022-09-15T18:15:56.210Z,1.02
2022-09-15T18:18:29.261Z,1.27
2022-09-15T18:20:58.317Z,0.98
2022-09-15T18:23:28.351Z,0.90
2022-09-15T18:25:59.947Z,1.00
2022-09-15T18:28:28.548Z,1.20
2022-09-15T18:31:08.805Z,1.10
2022-09-15T18:33:39.280Z,1.05
2022-09-15T18:36:10.804Z,1.10
2022-09-15T18:41:25.920Z,1.13
2022-09-15T18:43:54.648Z,1.23
2022-09-15T18:46:24.037Z,1.20
2022-09-15T18:48:59.618Z,1.17
2022-09-15T18:51:50.453Z,1.42
2022-09-15T18:54:38.333Z,0.82
2022-09-15T18:57:12.500Z,1.00
2022-09-15T19:03:19.872Z,1.73
2022-09-15T19:05:52.793Z,0.93
2022-09-15T19:08:21.283Z,1.10
2022-09-15T19:11:02.038Z,1.10
2022-09-15T19:13:30.525Z,1.02
2022-09-15T19:16:07.222Z,1.02
2022-09-15T19:18:46.716Z,1.20
2022-09-15T19:21:25.211Z,1.13
2022-09-15T19:24:00.472Z,1.00
2022-09-15T19:26:32.060Z,0.80
2022-09-15T19:29:00.364Z,1.05
2022-09-15T19:31:29.536Z,0.70
2022-09-15T19:33:58.241Z,0.90
2022-09-15T19:36:29.235Z,1.00
2022-09-15T19:38:57.986Z,1.15
2022-09-15T19:41:28.760Z,1.00
2022-09-15T19:43:57.539Z,1.05
2022-09-15T19:46:26.888Z,1.05
2022-09-15T19:48:58.796Z,1.58
2022-09-15T19:51:28.736Z,1.00
2022-09-15T19:53:58.982Z,1.38
2022-09-15T19:56:29.598Z,0.95
2022-09-15T19:58:59.558Z,1.10
2022-09-15T20:01:29.939Z,1.38
2022-09-15T20:03:58.756Z,0.80
2022-09-15T20:06:31.695Z,0.98
2022-09-15T20:09:04.601Z,1.33
2022-09-15T20:11:34.316Z,1.40
2022-09-15T20:14:04.503Z,1.90
2022-09-15T20:16:55.141Z,1.52
2022-09-15T20:19:31.980Z,1.00
2022-09-15T20:22:00.464Z,0.90
2022-09-15T20:24:30.156Z,0.90
2022-09-15T20:27:20.264Z,0.80
2022-09-15T20:29:49.964Z,1.00
2022-09-15T20:32:18.253Z,0.93
2022-09-15T20:34:46.745Z,0.80
2022-09-15T20:37:16.144Z,0.65
2022-09-15T20:39:47.770Z,1.10
2022-09-15T20:42:16.964Z,1.10
2022-09-15T20:44:45.532Z,0.68
2022-09-15T20:47:13.914Z,0.90
2022-09-15T20:49:42.762Z,1.02
2022-09-15T20:52:11.025Z,0.95
2022-09-15T20:54:39.318Z,0.57
2022-09-15T20:57:10.909Z,0.70
2022-09-15T20:59:39.487Z,1.00
2022-09-15T21:02:07.917Z,0.93
2022-09-15T21:04:36.591Z,1.00
2022-09-15T21:07:05.046Z,1.05
2022-09-15T21:09:34.740Z,1.00
2022-09-15T21:12:03.180Z,1.00
2022-09-15T21:14:32.842Z,1.20
2022-09-15T21:17:01.203Z,1.30
2022-09-15T21:19:29.549Z,1.15
2022-09-15T21:21:58.542Z,1.00
2022-09-15T21:24:26.863Z,1.08
2022-09-15T21:27:12.736Z,1.00
2022-09-15T21:29:42.654Z,1.35
2022-09-15T21:32:11.449Z,1.40
2022-09-15T21:34:40.721Z,1.20
2022-09-15T21:37:09.873Z,1.00
2022-09-15T21:39:38.613Z,1.00
2022-09-15T21:42:07.659Z,1.25
2022-09-15T21:44:55.935Z,0.98
2022-09-15T21:47:25.601Z,0.85
2022-09-15T21:49:54.529Z,2.08
2022-09-15T21:52:22.958Z,1.00
2022-09-15T21:54:51.923Z,0.90
2022-09-15T21:57:20.437Z,0.65
2022-09-15T21:59:49.301Z,0.88
2022-09-15T22:02:18.525Z,1.23
2022-09-15T22:04:48.246Z,0.90
2022-09-15T22:07:19.860Z,0.95
2022-09-15T22:10:08.739Z,1.20
2022-09-15T22:12:39.224Z,1.00
2022-09-15T22:15:29.320Z,1.00
2022-09-15T22:17:57.877Z,1.13
2022-09-15T22:20:28.380Z,1.17
2022-09-15T22:22:57.400Z,1.13
2022-09-15T22:25:26.473Z,1.17
2022-09-15T22:27:58.187Z,1.00
2022-09-15T22:30:27.425Z,1.05
2022-09-15T22:32:56.797Z,1.13
2022-09-15T22:35:25.918Z,0.80
2022-09-15T22:37:55.827Z,1.00
2022-09-15T22:40:26.436Z,0.70
2022-09-15T22:42:55.857Z,1.05
2022-09-15T22:45:25.556Z,0.80
2022-09-15T22:47:55.129Z,1.02
2022-09-15T22:50:23.794Z,1.13
2022-09-15T22:52:52.318Z,0.73
2022-09-15T22:55:22.020Z,0.90
2022-09-15T22:57:50.457Z,0.90
2022-09-15T23:00:20.240Z,0.80
2022-09-15T23:02:49.088Z,0.80
2022-09-15T23:05:41.669Z,0.70
2022-09-15T23:08:13.776Z,0.70
2022-09-15T23:10:43.564Z,0.77
2022-09-15T23:13:12.515Z,0.90
2022-09-15T23:15:41.069Z,0.70
2022-09-15T23:18:10.209Z,0.65
2022-09-15T23:20:39.794Z,0.95
2022-09-15T23:23:08.551Z,1.10
2022-09-15T23:25:37.090Z,0.75
2022-09-15T23:28:07.591Z,0.85
2022-09-15T23:30:39.237Z,1.10
2022-09-15T23:33:07.547Z,0.60
2022-09-15T23:35:37.700Z,0.80
2022-09-15T23:38:05.981Z,0.73
2022-09-15T23:40:39.599Z,0.73
2022-09-15T23:43:11.117Z,0.70
2022-09-15T23:45:39.829Z,1.02
2022-09-15T23:48:11.447Z,0.82
2022-09-15T23:50:40.619Z,0.80
2022-09-15T23:53:09.127Z,1.45
2022-09-15T23:55:40.647Z,1.00
2022-09-15T23:58:10.578Z,1.17
